Elizabethton, TN

13:11 EST le 19 décembre 2014 (GMT -0500)
Boone | Change Station
CLOSE
Current Station
Aéroport
Location: Boone,
Altitude: 3146 ft
Stations météo à proximité

Alt. 3146 ft 36.20 °N, 81.65 °W | Updated 16 minutes ago

Ciel dégagé
Ciel dégagé
40 ° F
Paraît 36 ° F
N
7
Vent Variable Vent de NO

Aujourd'hui
Haut(e) -- | Bas -- ° F
--% Risque de précip.
Hier
Haut(e) -- | Bas -- ° F
Precip. -- pouce
7:35 AM 5:16 PM
Lune descendante, 7% visible
Pression 30.10 pouce
Visibilité 10.0 Miles terrestres
Nuages Nuageux 3700 ft
Refroidissement éolien 36 ° F
Point de rosée 20 ° F
Humidité 44%
Précipitations 0.00 pouce
Profondeur de la couche neigeuse Non disponible.
UV 2 sur 12
Pollen .10 sur 12
Qualité de l'air Non disponible.
Flu Activity Non disponible.
METAR KTNB 191755Z AUTO 31006KT 10SM BKN037 05/M07 A3010 RMK AO2 T00461067 10049 21002

More Conditions Fewer Conditions

Pression 30.10 pouce
Visibilité 10.0 Miles terrestres
Nuages Nuageux 3700 ft
Refroidissement éolien 36 ° F
Point de rosée 20 ° F
Humidité 44%
Précipitations 0.00 pouce
Profondeur de la couche neigeuse Non disponible.
UV 2 sur 12
Pollen .10 sur 12
Qualité de l'air Non disponible.
Flu Activity Non disponible.
METAR KTNB 191755Z AUTO 31006KT 10SM BKN037 05/M07 A3010 RMK AO2 T00461067 10049 21002

More Conditions Fewer Conditions

10-Day Weather Forecast

Almanac

Astronomie

Dec. 19, 2014 Lever Coucher
Temps réel
Crépuscule civil
Crépuscule nautique
Crépuscule astronomique
Lune
Durée de lumière visible
Longueur du jour
Tomorrow will be .
, % of the Moon is Illuminated

Extrêmes aujourd'hui

State Highs State Lows

Community

WunderPhotos

Upload Photos

1,779,015 Photos téléchargées !

WunderBlogs® & News

Nearby

Qualité de l'air

  Qualité de l'air Indice de la qualité de l'air Polluant
Not available.

Épaisseur de neige

Station Depth Altitude

Activité sismique

Ville Distance Mag. Time & Date
Minimum magnitude displayed is 2.5.

Températures des eaux côtières

Lieu Température

Stations météo à proximité